Latest Coastal Weather Observations for Lockhart River

IDQ60701

Issued at 2:51 am EST Wednesday 1 July 2015 (issued every 10 minutes, with the page automatically refreshed every 10 minutes)

About coastal observations | Map of coastal stations | Coastal observations for QLD | Marine services | Other Formats
Station Details ID: 028008 Name: LOCKHART RIVER AIRPORT Lat: -12.79 Lon: 143.30 Height: 18.5 m
Data from the previous 72 hours. | See also: Recent months at Lockhart River
Date/Time
EST
Temp

°C
Wind Pressure Rain
since 9am
mm
Weather Cloud Vis
km
Sea
Height
m
Swell
Dir
 
Speed
knots
Gust
knots
hPa Trend Height
m
Period
s
Dir
01/02:31am 20.9 CALM 0 0 1016.3 - 31.4 - Partly cloudy - - - - -
01/02:30am 21.0 CALM 0 0 1016.3 - 31.4 - Partly cloudy - - - - -
01/02:00am 20.9 WSW 2 5 1016.6 - 31.4 - Partly cloudy - - - - -
01/01:30am 20.9 NNW 2 4 1016.7 - 23.8 - Partly cloudy - - - - -
01/01:09am 21.0 WNW 4 5 1017.0 - 23.8 - Partly cloudy - - - - -
01/01:00am 21.0 NW 4 5 1017.2 - 23.8 - Partly cloudy - - - - -
01/12:30am 21.2 SSW 5 5 1017.4 - 23.8 - Partly cloudy - - - - -
01/12:00am 21.1 ENE 8 17 1017.4 - 23.6 - Partly cloudy - - - - -
 
Date/Time
EST
Temp

°C
Wind Pressure Rain
since 9am
mm
Weather Cloud Vis
km
Sea
Height
m
Swell
Dir
 
Speed
knots
Gust
knots
hPa Trend Height
m
Period
s
Dir
30/11:30pm 22.0 ESE 7 10 1017.5 - 20.2 - Partly cloudy - - - - -
30/11:24pm 22.0 ESE 7 10 1017.5 - 20.2 - Partly cloudy - - - - -
30/11:03pm 21.7 SSE 3 5 1017.6 - 20.0 - Partly cloudy - - - - -
30/11:00pm 21.6 S 3 5 1017.5 - 20.0 - Partly cloudy - - - - -
30/10:30pm 21.6 ESE 1 5 1017.7 - 19.8 - Partly cloudy - - - - -
30/10:25pm 21.7 ESE 4 8 1017.8 - 19.8 - Partly cloudy - - - - -
30/10:00pm 21.5 E 7 11 1018.0 - 19.4 - Partly cloudy - - - - -
30/09:55pm 21.3 E 6 10 1018.0 - 19.4 - Partly cloudy - - - - -
30/09:51pm 21.2 ENE 6 11 1017.9 - 19.4 - Partly cloudy - - - - -
30/09:30pm 21.2 E 10 16 1018.0 - 16.6 - Partly cloudy - - - - -
30/09:00pm 21.9 S 6 8 1017.1 - 5.4 - Partly cloudy - - - - -
30/08:35pm 22.0 SSE 3 4 1017.0 - 3.6 - Partly cloudy - - - - -
30/08:30pm 22.0 SSE 3 4 1016.9 - 3.4 - Partly cloudy - - - - -
30/08:28pm 22.0 SSE 3 5 1016.9 - 3.4 - Partly cloudy - - - - -
30/08:13pm 22.1 CALM 0 0 1016.7 - 2.2 - Partly cloudy - - - - -
30/08:00pm 21.9 CALM 0 0 1016.7 - 1.6 - Partly cloudy - - - - -
30/07:30pm 22.0 CALM 0 0 1016.2 - 1.6 - Partly cloudy - - - - -
30/07:00pm 22.1 SSE 3 6 1016.0 - 1.6 - Partly cloudy - - - - -
30/06:30pm 22.0 ESE 7 10 1015.8 - 1.6 - Partly cloudy - - - - -
30/06:12pm 22.2 SSE 5 8 1015.7 - 1.6 - Partly cloudy - - - - -
30/06:01pm 22.3 S 4 5 1015.6 - 1.6 - Partly cloudy - - - - -
30/06:00pm 22.3 S 4 5 1015.5 - 1.6 - Partly cloudy - - - - -
30/05:30pm 22.3 S 4 7 1015.2 - 1.6 - Partly cloudy - - - - -
30/05:00pm 22.1 SSE 7 17 1014.9 - 1.6 - Partly cloudy - - - - -
30/04:30pm 24.0 ESE 9 17 1014.5 - 0.2 - Partly cloudy - - - - -
30/04:00pm 25.3 ESE 8 11 1014.1 - 0.2 - Partly cloudy - - - - -
30/03:30pm 25.6 ESE 10 15 1014.0 - 0.2 - Partly cloudy - - - - -
30/03:00pm 26.9 E 10 15 1014.0 - 0.2 Fine Mostly cloudy 18 - - - -
30/02:30pm 26.5 ESE 9 13 1014.2 - 0.2 - Partly cloudy - - - - -
30/02:00pm 26.4 ESE 10 15 1014.4 - 0.2 - Partly cloudy - - - - -
30/01:30pm 26.6 ESE 11 15 1014.9 - 0.2 - Partly cloudy - - - - -
30/01:00pm 25.9 SSE 9 13 1015.2 - 0.2 - Cloudy - - - - -
30/12:30pm 26.2 ESE 8 12 1015.6 - 0.2 - Partly cloudy - - - - -
30/12:03pm 25.6 SSE 8 13 1016.1 - 0.2 - Partly cloudy - - - - -
30/12:00pm 25.7 SSE 8 12 1016.0 - 0.2 - Partly cloudy - - - - -
30/11:53am 25.3 SE 9 13 1016.2 - 0.2 - Partly cloudy - - - - -
30/11:50am 25.2 SSE 10 13 1016.3 - 0.2 - Partly cloudy - - - - -
30/11:30am 25.2 SSE 8 13 1016.5 - 0.2 - Partly cloudy - - - - -
30/11:00am 24.7 SSE 10 15 1016.7 - 0.0 - Partly cloudy - - - - -
30/10:30am 23.9 SSE 7 10 1016.9 - 0.0 - Partly cloudy - - - - -
30/10:00am 22.7 S 6 9 1017.1 - 0.0 - Partly cloudy - - - - -
30/09:30am 22.1 S 3 4 1017.2 - 0.0 - Partly cloudy - - - - -
30/09:00am 21.5 S 5 6 1017.0 - 1.4 Fine Cloudy 15 - - - -
30/08:49am 21.4 SSE 5 8 1017.0 - 1.4 - Partly cloudy - - - - -
30/08:30am 21.2 S 3 5 1016.8 - 1.4 - Partly cloudy - - - - -
30/08:00am 20.6 S 3 6 1016.4 - 1.4 - Partly cloudy - - - - -
30/07:30am 19.7 CALM 0 0 1016.2 - 1.4 - Partly cloudy - - - - -
30/07:00am 18.4 CALM 0 0 1015.9 - 1.4 - Partly cloudy - - - - -
30/06:30am 18.3 CALM 0 0 1015.4 - 1.4 - Partly cloudy - - - - -
30/06:00am 18.0 CALM 0 0 1015.0 - 1.4 - Partly cloudy - - - - -
30/05:45am 17.7 CALM 0 0 1015.1 - 1.4 - Partly cloudy - - - - -
30/05:33am 17.7 CALM 0 0 1015.2 - 1.4 - Partly cloudy - - - - -
30/05:30am 17.6 CALM 0 0 1015.2 - 1.4 - Partly cloudy - - - - -
30/05:00am 17.3 CALM 0 0 1015.0 - 1.4 - Partly cloudy - - - - -
30/04:30am 17.4 CALM 0 3 1015.0 - 1.4 - Partly cloudy - - - - -
30/04:00am 17.5 WNW 3 5 1015.0 - 1.4 - - - - - - -
30/03:30am 17.4 CALM 0 0 1015.0 - 1.4 - - - - - - -
30/03:00am 17.6 CALM 0 0 1015.0 - 1.4 - Partly cloudy - - - - -
30/02:30am 17.8 CALM 0 0 1015.4 - 1.4 - Partly cloudy - - - - -
30/02:00am 17.9 CALM 0 0 1015.6 - 1.4 - Partly cloudy - - - - -
30/01:30am 18.1 WNW 1 3 1015.8 - 1.4 - Partly cloudy - - - - -
30/01:00am 18.1 CALM 0 3 1015.9 - 1.4 - Partly cloudy - - - - -
30/12:30am 18.4 CALM 0 0 1016.0 - 1.4 - Partly cloudy - - - - -
30/12:00am 18.3 CALM 0 0 1016.0 - 1.4 - Partly cloudy - - - - -
 
Date/Time
EST
Temp

°C
Wind Pressure Rain
since 9am
mm
Weather Cloud Vis
km
Sea
Height
m
Swell
Dir
 
Speed
knots
Gust
knots
hPa Trend Height
m
Period
s
Dir
29/11:30pm 18.7 CALM 0 0 1016.4 - 1.4 - Partly cloudy - - - - -
29/11:00pm 18.9 CALM 0 0 1016.6 - 1.4 - - - - - - -
29/10:30pm 19.4 CALM 0 0 1016.7 - 1.4 - Partly cloudy - - - - -
29/10:00pm 19.7 CALM 0 0 1016.7 - 1.4 - Partly cloudy - - - - -
29/09:30pm 19.7 CALM 0 0 1016.8 - 1.4 - - - - - - -
29/09:00pm 20.2 CALM 0 0 1016.6 - 1.4 - - - - - - -
29/08:30pm 21.0 CALM 0 0 1016.5 - 1.4 - Partly cloudy - - - - -
29/08:00pm 21.4 SE 1 3 1016.4 - 1.4 - Partly cloudy - - - - -
29/07:30pm 21.9 SSE 5 6 1016.1 - 1.4 - Partly cloudy - - - - -
29/07:00pm 22.1 E 1 3 1015.7 - 1.4 - Partly cloudy - - - - -
29/06:30pm 21.9 CALM 0 0 1015.4 - 1.4 - Partly cloudy - - - - -
29/06:00pm 22.3 S 2 4 1015.1 - 1.4 - Partly cloudy - - - - -
29/05:30pm 23.0 SSE 4 6 1015.0 - 1.4 - Partly cloudy - - - - -
29/05:00pm 22.5 S 2 4 1014.9 - 1.4 - Partly cloudy - - - - -
29/04:30pm 22.5 SE 5 7 1014.7 - 1.4 - Partly cloudy - - - - -
29/04:00pm 24.0 E 8 14 1014.3 - 0.6 - Partly cloudy - - - - -
29/03:30pm 23.0 E 5 7 1014.5 - 0.6 - Partly cloudy - - - - -
29/03:00pm 25.0 ESE 13 18 1014.6 - 0.0 Distant precip. Mostly cloudy 15 - - - -
29/02:30pm 25.2 ESE 12 19 1014.8 - 0.0 - Partly cloudy - - - - -
29/02:00pm 26.3 ESE 10 15 1015.0 - 0.0 - Partly cloudy - - - - -
29/01:30pm 26.4 E 9 13 1015.4 - 0.0 - Partly cloudy - - - - -
29/01:00pm 26.6 E 10 15 1015.9 - 0.0 - Partly cloudy - - - - -
29/12:30pm 25.9 ESE 8 12 1016.2 - 0.0 - Partly cloudy - - - - -
29/12:00pm 25.9 ESE 11 17 1016.7 - 0.0 - Partly cloudy - - - - -
29/11:30am 26.2 SE 9 12 1016.9 - 0.0 - Partly cloudy - - - - -
29/11:00am 24.4 SSE 8 11 1017.4 - 0.0 - Partly cloudy - - - - -
29/10:30am 24.3 SE 7 11 1017.7 - 0.0 - Partly cloudy - - - - -
29/10:00am 24.1 SE 8 10 1018.0 - 0.0 - Partly cloudy - - - - -
29/09:30am 23.9 SSE 7 11 1018.2 - 0.0 - - - - - - -
29/09:00am 22.6 SSE 5 8 1018.1 - 0.0 Fine Partly cloudy 30 - - - -
29/08:30am 21.0 S 4 7 1018.1 - 0.0 - - - - - - -
29/08:00am 20.0 CALM 0 0 1017.9 - 0.0 - - - - - - -
29/07:30am 17.6 CALM 0 0 1017.7 - 0.0 - - - - - - -
29/07:00am 16.8 CALM 0 0 1017.3 - 0.0 - - - - - - -
29/06:30am 17.0 CALM 0 0 1017.1 - 0.0 - Partly cloudy - - - - -
29/06:00am 17.0 CALM 0 0 1016.8 - 0.0 - Partly cloudy - - - - -
29/05:30am 17.2 CALM 0 0 1016.5 - 0.0 - Partly cloudy - - - - -
29/05:22am 17.2 CALM 0 0 1016.5 - 0.0 - Partly cloudy - - - - -
29/05:12am 17.1 CALM 0 0 1016.5 - 0.0 - Partly cloudy - - - - -
29/05:00am 17.1 CALM 0 0 1016.6 - 0.0 - Partly cloudy - - - - -
29/04:30am 17.0 CALM 0 0 1016.4 - 0.0 - Partly cloudy - - - - -
29/04:00am 17.0 CALM 0 0 1016.5 - 0.0 - Partly cloudy - - - - -
29/03:30am 17.1 CALM 0 0 1016.7 - 0.0 - Partly cloudy - - - - -
29/03:00am 17.2 CALM 0 0 1016.7 - 0.0 - - - - - - -
29/02:30am 17.4 CALM 0 0 1017.0 - 0.0 - Partly cloudy - - - - -
29/02:00am 17.5 CALM 0 0 1017.2 - 0.0 - - - - - - -
29/01:30am 17.7 CALM 0 0 1017.6 - 0.0 - - - - - - -
29/01:00am 17.8 CALM 0 0 1017.7 - 0.0 - - - - - - -
29/12:30am 18.0 CALM 0 0 1018.0 - 0.0 - Partly cloudy - - - - -
29/12:00am 18.3 CALM 0 0 1018.3 - 0.0 - Partly cloudy - - - - -
 
Date/Time
EST
Temp

°C
Wind Pressure Rain
since 9am
mm
Weather Cloud Vis
km
Sea
Height
m
Swell
Dir
 
Speed
knots
Gust
knots
hPa Trend Height
m
Period
s
Dir
28/11:30pm 18.5 CALM 0 0 1018.6 - 0.0 - - - - - - -
28/11:00pm 18.9 CALM 0 0 1018.8 - 0.0 - Partly cloudy - - - - -
28/10:30pm 19.0 CALM 0 0 1018.9 - 0.0 - Partly cloudy - - - - -
28/10:00pm 19.1 CALM 0 0 1018.9 - 0.0 - Partly cloudy - - - - -
28/09:30pm 19.2 CALM 0 0 1018.9 - 0.0 - - - - - - -
28/09:00pm 19.6 CALM 0 0 1018.8 - 0.0 - - - - - - -
28/08:30pm 19.9 CALM 0 0 1018.6 - 0.0 - Partly cloudy - - - - -
28/08:00pm 20.4 CALM 0 0 1018.4 - 0.0 - - - - - - -
28/07:30pm 21.8 ESE 4 5 1018.0 - 0.0 - - - - - - -
28/07:00pm 22.1 SE 4 5 1017.7 - 0.0 - - - - - - -
28/06:30pm 22.8 SE 6 8 1017.5 - 0.0 - Partly cloudy - - - - -
28/06:00pm 23.4 SE 8 11 1017.2 - 0.0 - Partly cloudy - - - - -
28/05:30pm 24.3 SE 10 15 1017.0 - 0.0 - Partly cloudy - - - - -
28/05:00pm 24.5 SE 11 15 1016.7 - 0.0 - Partly cloudy - - - - -
28/04:30pm 24.6 SE 10 14 1016.5 - 0.0 - Partly cloudy - - - - -
28/04:00pm 24.9 SE 13 18 1016.4 - 0.0 - Partly cloudy - - - - -
28/03:30pm 25.5 ESE 12 18 1016.5 - 0.0 - Partly cloudy - - - - -
28/03:00pm 25.7 SE 10 14 1016.5 - 0.0 Fine Partly cloudy 30 - - - -
28/02:30pm 25.9 ESE 13 16 1016.7 - 0.0 - Partly cloudy - - - - -
28/02:00pm 25.3 SE 13 17 1017.0 - 0.0 - Partly cloudy - - - - -
28/01:30pm 25.4 ESE 13 18 1017.3 - 0.0 - Partly cloudy - - - - -
28/01:00pm 24.7 SE 13 19 1017.6 - 0.0 - Partly cloudy - - - - -
28/12:30pm 25.6 ESE 11 15 1017.9 - 0.0 - Partly cloudy - - - - -
28/12:00pm 25.5 SE 11 15 1018.1 - 0.0 - Partly cloudy - - - - -
28/11:30am 25.1 ESE 12 18 1018.5 - 0.0 - Partly cloudy - - - - -
28/11:00am 25.2 SE 14 18 1018.6 - 0.0 - Partly cloudy - - - - -
28/10:30am 24.7 SE 13 18 1018.7 - 0.0 - Partly cloudy - - - - -
28/10:00am 24.5 SSE 9 12 1018.8 - 0.0 - Partly cloudy - - - - -
28/09:30am 23.8 SE 10 13 1019.0 - 0.0 - Partly cloudy - - - - -
28/09:00am 22.8 S 7 10 1018.8 - 1.4 Fine Partly cloudy 30 - - - -
28/08:30am 22.1 S 6 8 1018.7 - 1.4 - Partly cloudy - - - - -
28/08:00am 20.8 SSE 5 8 1018.4 - 1.4 - Partly cloudy - - - - -
28/07:30am 20.0 CALM 0 0 1018.2 - 1.4 - Partly cloudy - - - - -
28/07:00am 19.6 CALM 0 0 1017.9 - 1.4 - Partly cloudy - - - - -
28/06:30am 20.3 SE 4 5 1017.6 - 1.4 - Partly cloudy - - - - -
28/06:00am 20.7 SSE 5 6 1017.3 - 1.4 - Partly cloudy - - - - -
28/05:30am 21.2 SSE 5 7 1017.4 - 1.4 - Partly cloudy - - - - -
28/05:00am 21.4 SSE 7 9 1017.2 - 1.4 - Partly cloudy - - - - -
28/04:30am 21.7 SSE 6 8 1017.2 - 1.4 - Partly cloudy - - - - -
28/04:00am 21.9 SSE 7 9 1017.3 - 1.4 - Partly cloudy - - - - -
28/03:30am 21.9 SE 7 9 1017.3 - 1.4 - Partly cloudy - - - - -
28/03:00am 22.0 SE 8 10 1017.3 - 1.4 - Partly cloudy - - - - -

Other Formats:

Comma delimited format used in spreadsheet applications
http://www.bom.gov.au/fwo/IDQ60701/IDQ60701.94186.axf

JavaScript Object Notation format (JSON) in row-major order
http://www.bom.gov.au/fwo/IDQ60701/IDQ60701.94186.json